Time;durP1;ratioP1;P1;durP2;ratioP2;P2;SDS_P1;SDS_P2;PMS_P1;PMS_P2;Temp;Humidity;BMP_temperature;BMP_pressure;BME280_temperature;BME280_humidity;BME280_pressure;Samples;Min_cycle;Max_cycle;Signal;HPM_P1;HPM_P2
2023/04/13 00:00:17;;;;;;;;;2.67;1.00;;;;;9.70;100.00;99819.47;5006864;28;45891;-79
2023/04/13 00:02:42;;;;;;;;;2.67;0.00;;;;;9.59;100.00;99814.72;5007981;28;45684;-79
2023/04/13 00:05:09;;;;;;;;;3.00;2.00;;;;;9.61;100.00;99825.44;5010666;28;45716;-79
2023/04/13 00:07:38;;;;;;;;;0.00;0.00;;;;;9.56;100.00;99817.91;5011191;28;45431;-79
2023/04/13 00:10:08;;;;;;;;;1.67;1.00;;;;;9.61;100.00;99828.19;5010248;28;45578;-79
2023/04/13 00:12:35;;;;;;;;;3.33;2.00;;;;;9.60;100.00;99826.53;5008271;28;47044;-78
2023/04/13 00:15:04;;;;;;;;;3.33;0.00;;;;;9.64;100.00;99838.69;5010281;28;47054;-80
2023/04/13 00:17:30;;;;;;;;;2.67;2.00;;;;;9.66;100.00;99829.19;5009953;28;45929;-78
2023/04/13 00:19:58;;;;;;;;;2.33;1.33;;;;;9.68;100.00;99835.25;5010204;28;45832;-79
2023/04/13 00:22:26;;;;;;;;;3.00;3.00;;;;;9.74;100.00;99828.06;5010139;28;45862;-78
2023/04/13 00:24:56;;;;;;;;;1.67;1.00;;;;;9.75;100.00;99826.16;5002455;28;45866;-78
2023/04/13 00:27:25;;;;;;;;;5.67;2.00;;;;;9.76;100.00;99811.41;5009804;28;45765;-78
2023/04/13 00:29:51;;;;;;;;;1.33;1.33;;;;;9.78;100.00;99825.72;5009497;28;46056;-78
2023/04/13 00:32:16;;;;;;;;;1.67;1.67;;;;;9.72;100.00;99821.97;5009973;28;45560;-77
2023/04/13 00:34:42;;;;;;;;;4.33;2.00;;;;;9.75;100.00;99826.16;5010506;28;45742;-78
2023/04/13 00:37:07;;;;;;;;;1.00;1.00;;;;;9.72;100.00;99817.31;5010384;28;45420;-78
2023/04/13 00:39:32;;;;;;;;;5.67;3.00;;;;;9.63;100.00;99794.03;5010517;28;45542;-79
2023/04/13 00:41:58;;;;;;;;;4.33;2.00;;;;;9.75;100.00;99820.69;5010112;28;45324;-79
2023/04/13 00:44:24;;;;;;;;;2.00;1.00;;;;;9.72;100.00;99827.44;5009566;28;45431;-78
2023/04/13 00:46:53;;;;;;;;;8.00;2.00;;;;;9.71;100.00;99839.44;5008987;28;45525;-78
2023/04/13 00:49:19;;;;;;;;;6.33;2.33;;;;;9.61;100.00;99819.97;5009725;28;46089;-79
2023/04/13 00:51:45;;;;;;;;;4.67;1.67;;;;;9.66;100.00;99815.50;5005262;28;46978;-78
2023/04/13 00:54:15;;;;;;;;;4.00;1.67;;;;;9.68;100.00;99821.56;5014069;28;45848;-79
2023/04/13 00:56:42;;;;;;;;;4.00;2.00;;;;;9.67;100.00;99836.34;5004230;28;45632;-78
2023/04/13 00:59:10;;;;;;;;;3.00;2.67;;;;;9.65;100.00;99837.63;5013645;28;45565;-79
2023/04/13 01:01:44;;;;;;;;;2.67;1.33;;;;;9.64;100.00;99825.00;5012570;28;46778;-80
2023/04/13 01:04:17;;;;;;;;;6.33;1.67;;;;;9.62;100.00;99838.91;5013779;28;45953;-79
2023/04/13 01:06:48;;;;;;;;;5.00;3.00;;;;;9.53;100.00;99826.56;5019562;28;46567;-78
2023/04/13 01:09:20;;;;;;;;;6.00;2.00;;;;;9.64;100.00;99842.28;4994548;28;45809;-78
2023/04/13 01:11:53;;;;;;;;;3.00;3.00;;;;;9.63;100.00;99835.13;5009131;28;47738;-80
2023/04/13 01:14:43;;;;;;;;;3.67;3.00;;;;;9.58;100.00;99829.50;5010146;28;45789;-78
2023/04/13 01:17:30;;;;;;;;;7.00;3.33;;;;;9.55;100.00;99835.41;4995618;28;45578;-80
2023/04/13 01:20:00;;;;;;;;;6.33;3.00;;;;;9.53;100.00;99830.13;5013345;28;45936;-79
2023/04/13 01:22:32;;;;;;;;;6.00;4.00;;;;;9.55;100.00;99835.41;5011431;28;45468;-79
2023/04/13 01:25:10;;;;;;;;;10.00;3.00;;;;;9.53;100.00;99835.59;5013517;28;45576;-80
2023/04/13 01:27:47;;;;;;;;;4.00;3.00;;;;;9.52;100.00;99833.97;5007217;28;45917;-80
2023/04/13 01:30:15;;;;;;;;;14.00;3.00;;;;;9.47;100.00;99836.50;5013298;28;45435;-79
2023/04/13 01:32:42;;;;;;;;;4.67;1.67;;;;;9.50;100.00;99837.97;5014120;28;46530;-79
2023/04/13 01:35:09;;;;;;;;;5.67;3.00;;;;;9.49;100.00;99855.44;5015729;28;45513;-79
2023/04/13 01:37:42;;;;;;;;;3.33;3.33;;;;;9.46;100.00;99839.47;5005226;28;45457;-78
2023/04/13 01:40:11;;;;;;;;;5.67;4.00;;;;;9.43;100.00;99828.97;5011123;28;45709;-80
2023/04/13 01:42:41;;;;;;;;;3.00;2.00;;;;;9.42;100.00;99839.09;5011801;28;45819;-79
2023/04/13 01:45:13;;;;;;;;;6.33;3.67;;;;;9.38;100.00;99835.13;5012028;28;45532;-81
2023/04/13 01:47:46;;;;;;;;;4.00;2.00;;;;;9.41;100.00;99853.84;5010996;28;45535;-79
2023/04/13 01:50:24;;;;;;;;;5.33;2.00;;;;;9.36;100.00;99857.25;5013708;28;45611;-79
2023/04/13 01:52:53;;;;;;;;;4.00;2.67;;;;;9.38;100.00;99857.00;5013416;28;46730;-78
2023/04/13 01:55:22;;;;;;;;;5.33;3.00;;;;;9.35;100.00;99871.97;5025033;28;45466;-79
2023/04/13 01:57:50;;;;;;;;;10.00;3.67;;;;;9.31;100.00;99856.22;5011955;28;45788;-77
2023/04/13 02:00:17;;;;;;;;;8.67;3.00;;;;;9.32;100.00;99871.59;5016891;28;45860;-80
2023/04/13 02:02:43;;;;;;;;;3.33;2.00;;;;;9.32;100.00;99863.38;5011986;28;46666;-79
2023/04/13 02:05:10;;;;;;;;;4.33;2.00;;;;;9.28;100.00;99852.06;5010751;28;45757;-80
2023/04/13 02:07:37;;;;;;;;;4.67;2.00;;;;;9.28;100.00;99857.53;4994153;28;45507;-78
2023/04/13 02:10:05;;;;;;;;;2.00;2.00;;;;;9.27;100.00;99861.31;5000589;28;45507;-79
2023/04/13 02:12:32;;;;;;;;;7.00;4.67;;;;;9.25;100.00;99863.44;5011411;28;45776;-81
2023/04/13 02:14:58;;;;;;;;;4.00;2.33;;;;;9.23;100.00;99864.72;4993995;28;45460;-78
2023/04/13 02:17:24;;;;;;;;;6.33;4.33;;;;;9.19;100.00;99870.63;5016488;28;45451;-78
2023/04/13 02:19:50;;;;;;;;;4.33;1.00;;;;;9.24;100.00;99889.13;5015250;28;45787;-79
2023/04/13 02:22:15;;;;;;;;;6.00;4.00;;;;;9.10;100.00;99863.75;5014633;28;46651;-79
2023/04/13 02:24:41;;;;;;;;;4.67;3.00;;;;;9.27;100.00;99891.41;5015666;28;45914;-79
2023/04/13 02:27:06;;;;;;;;;3.00;1.00;;;;;9.31;100.00;99889.06;5014924;28;45435;-81
2023/04/13 02:29:32;;;;;;;;;7.00;4.00;;;;;9.31;100.00;99903.59;5013542;28;47259;-81
2023/04/13 02:31:57;;;;;;;;;3.67;1.33;;;;;9.36;100.00;99922.09;5021329;28;47425;-80
2023/04/13 02:34:22;;;;;;;;;4.00;3.00;;;;;9.40;100.00;99903.31;5014686;28;45399;-81
2023/04/13 02:36:48;;;;;;;;;5.00;2.00;;;;;9.49;100.00;99910.19;5001830;28;45605;-80
2023/04/13 02:39:14;;;;;;;;;2.67;2.67;;;;;9.48;100.00;99914.00;5014088;28;45570;-79
2023/04/13 02:41:41;;;;;;;;;5.00;3.33;;;;;9.52;100.00;99921.53;5027009;28;45839;-79
2023/04/13 02:44:07;;;;;;;;;4.67;2.33;;;;;9.56;100.00;99908.25;5020442;28;45670;-79
2023/04/13 02:46:33;;;;;;;;;6.00;5.00;;;;;9.49;100.00;99904.72;5021821;28;45532;-80
2023/04/13 02:48:58;;;;;;;;;5.33;3.00;;;;;9.58;100.00;99910.75;5020371;28;45787;-82
2023/04/13 02:51:24;;;;;;;;;2.00;1.33;;;;;9.47;100.00;99915.06;5016830;28;46071;-82
2023/04/13 02:53:50;;;;;;;;;3.33;2.00;;;;;9.43;100.00;99913.81;5015228;28;45570;-79
2023/04/13 02:56:16;;;;;;;;;4.33;3.00;;;;;9.39;100.00;99905.22;5015168;28;45825;-79
2023/04/13 02:58:41;;;;;;;;;7.00;4.00;;;;;9.32;100.00;99908.00;5002623;28;46999;-79
2023/04/13 03:01:06;;;;;;;;;4.00;2.00;;;;;9.21;100.00;99908.72;5020655;28;45360;-79
2023/04/13 03:03:32;;;;;;;;;5.00;2.33;;;;;9.14;100.00;99902.44;5021791;28;45623;-79
2023/04/13 03:05:57;;;;;;;;;5.00;4.00;;;;;9.15;100.00;99917.81;5028008;28;44783;-79
2023/04/13 03:08:23;;;;;;;;;6.00;4.00;;;;;9.06;100.00;99911.75;5017159;28;46016;-80
2023/04/13 03:10:48;;;;;;;;;4.67;2.67;;;;;8.91;100.00;99892.91;5014737;28;46163;-80
2023/04/13 03:13:13;;;;;;;;;4.00;2.67;;;;;8.93;100.00;99912.66;5016659;28;46542;-80
2023/04/13 03:15:41;;;;;;;;;4.67;3.00;;;;;8.95;100.00;99913.28;4998966;28;45391;-79
2023/04/13 03:18:06;;;;;;;;;4.67;3.33;;;;;8.94;100.00;99906.13;5011601;28;46631;-80
2023/04/13 03:20:31;;;;;;;;;3.00;2.00;;;;;8.84;100.00;99911.25;5018583;28;46464;-79
2023/04/13 03:22:57;;;;;;;;;5.33;2.00;;;;;8.85;100.00;99915.66;5033123;28;45098;-80
2023/04/13 03:25:23;;;;;;;;;2.67;2.67;;;;;8.81;100.00;99925.34;5033881;28;45382;-81
2023/04/13 03:27:49;;;;;;;;;7.33;3.00;;;;;8.74;100.00;99925.38;5032221;28;45204;-79
2023/04/13 03:30:14;;;;;;;;;4.00;2.33;;;;;8.70;100.00;99926.00;5017465;28;45496;-80
2023/04/13 03:32:40;;;;;;;;;2.67;1.67;;;;;8.52;100.00;99893.91;5032972;28;44765;-80
2023/04/13 03:35:06;;;;;;;;;3.67;3.33;;;;;8.64;100.00;99942.25;5021674;28;45529;-80
2023/04/13 03:37:39;;;;;;;;;2.67;2.00;;;;;8.56;100.00;99923.38;5025493;28;45608;-79
2023/04/13 03:40:09;;;;;;;;;4.00;3.00;;;;;8.59;100.00;99927.53;5030433;28;45315;-80
2023/04/13 03:42:34;;;;;;;;;3.67;1.00;;;;;8.48;100.00;99916.22;5028901;28;45350;-79
2023/04/13 03:45:00;;;;;;;;;4.33;2.00;;;;;8.50;100.00;99918.72;5030184;28;44864;-78
2023/04/13 03:47:25;;;;;;;;;5.33;3.00;;;;;8.54;100.00;99943.75;5031151;28;45347;-79
2023/04/13 03:49:51;;;;;;;;;4.00;2.00;;;;;8.48;100.00;99943.53;5024127;28;45332;-79
2023/04/13 03:52:16;;;;;;;;;4.00;1.00;;;;;8.45;100.00;99943.97;5018795;28;45517;-78
2023/04/13 03:54:42;;;;;;;;;4.67;2.67;;;;;8.37;100.00;99921.47;5019112;28;45738;-79
2023/04/13 03:57:07;;;;;;;;;3.33;1.33;;;;;8.53;100.00;99951.09;5019305;28;45888;-79
2023/04/13 03:59:33;;;;;;;;;5.00;3.67;;;;;8.47;100.00;99957.41;5016316;28;46074;-80
2023/04/13 04:01:58;;;;;;;;;3.33;1.00;;;;;8.46;100.00;99961.22;5003624;28;45499;-79
2023/04/13 04:04:24;;;;;;;;;6.00;2.00;;;;;8.41;100.00;99950.06;5015000;28;45532;-81
2023/04/13 04:06:50;;;;;;;;;4.00;2.00;;;;;8.30;100.00;99933.25;5011507;28;45826;-79
2023/04/13 04:09:15;;;;;;;;;4.67;3.00;;;;;8.41;100.00;99958.25;5027815;28;45488;-80
2023/04/13 04:11:41;;;;;;;;;7.00;4.00;;;;;8.37;100.00;99948.78;5024628;28;45828;-80
2023/04/13 04:14:06;;;;;;;;;4.00;3.00;;;;;8.38;100.00;99958.69;5013260;28;45421;-77
2023/04/13 04:16:33;;;;;;;;;5.67;3.00;;;;;8.37;100.00;99957.00;5014261;28;45452;-78
2023/04/13 04:18:58;;;;;;;;;4.67;2.00;;;;;8.38;100.00;99964.97;5019756;28;48089;-79
2023/04/13 04:21:33;;;;;;;;;2.33;1.00;;;;;8.28;100.00;99942.75;5016262;28;45372;-79
2023/04/13 04:24:04;;;;;;;;;6.67;3.00;;;;;8.23;100.00;99946.13;5014313;28;45879;-78
2023/04/13 04:26:31;;;;;;;;;2.00;1.67;;;;;8.20;100.00;99951.97;5021210;28;45744;-82
2023/04/13 04:29:02;;;;;;;;;5.33;3.00;;;;;8.29;100.00;99972.59;5009644;28;46874;-80
2023/04/13 04:31:32;;;;;;;;;2.33;2.00;;;;;8.28;100.00;99981.81;5011196;28;45873;-80
2023/04/13 04:34:01;;;;;;;;;7.33;3.00;;;;;8.20;100.00;99970.28;5015586;28;45734;-80
2023/04/13 04:36:27;;;;;;;;;10.00;4.00;;;;;8.28;100.00;99981.81;4996420;28;46480;-79
2023/04/13 04:38:56;;;;;;;;;7.33;6.00;;;;;8.26;100.00;99985.81;5013469;28;45183;-78
2023/04/13 04:41:23;;;;;;;;;7.00;3.00;;;;;8.21;100.00;99980.16;5009454;28;45504;-80
2023/04/13 04:43:49;;;;;;;;;4.67;2.33;;;;;8.10;100.00;99984.38;5009022;28;45721;-80
2023/04/13 04:46:15;;;;;;;;;5.00;4.00;;;;;8.15;100.00;99995.50;5011630;28;47161;-80
2023/04/13 04:48:41;;;;;;;;;7.00;3.00;;;;;8.16;100.00;99993.59;5013747;28;46118;-80
2023/04/13 04:51:10;;;;;;;;;6.00;2.00;;;;;8.15;100.00;99997.41;5012595;28;45569;-78
2023/04/13 04:53:35;;;;;;;;;6.33;2.33;;;;;8.23;100.00;100013.56;5013898;28;45759;-80
2023/04/13 04:56:01;;;;;;;;;5.67;3.33;;;;;8.37;100.00;100006.16;5013136;28;45894;-80
2023/04/13 04:58:26;;;;;;;;;9.00;1.50;;;;;8.37;100.00;100007.03;4998723;28;46160;-80
2023/04/13 05:00:52;;;;;;;;;7.00;3.00;;;;;8.46;100.00;100015.88;5015543;28;45405;-80
2023/04/13 05:03:17;;;;;;;;;8.33;5.00;;;;;8.51;100.00;100016.06;5011652;28;45340;-80
2023/04/13 05:05:43;;;;;;;;;3.67;2.00;;;;;8.59;100.00;100020.47;5012401;28;45717;-79
2023/04/13 05:08:08;;;;;;;;;6.00;4.00;;;;;8.66;100.00;100026.75;4995176;28;48014;-81
2023/04/13 05:10:52;;;;;;;;;7.00;2.00;;;;;8.61;100.00;100011.00;5009665;28;45443;-84
2023/04/13 05:13:17;;;;;;;;;4.50;2.00;;;;;8.76;100.00;100035.34;5007687;28;45451;-81
2023/04/13 05:15:43;;;;;;;;;5.67;3.67;;;;;8.73;100.00;100026.75;5015798;28;45380;-79
2023/04/13 05:18:11;;;;;;;;;2.67;1.33;;;;;8.84;100.00;100047.94;4996873;28;46962;-80
2023/04/13 05:20:38;;;;;;;;;5.00;4.00;;;;;8.79;100.00;100042.28;5010007;28;45881;-79
2023/04/13 05:23:03;;;;;;;;;6.00;3.00;;;;;8.94;100.00;100045.59;5009296;28;45502;-80
2023/04/13 05:25:29;;;;;;;;;3.33;2.00;;;;;9.06;100.00;100062.19;5010772;28;45761;-79
2023/04/13 05:27:55;;;;;;;;;5.00;2.00;;;;;8.88;100.00;100019.13;5011037;28;47051;-81
2023/04/13 05:30:23;;;;;;;;;5.00;1.33;;;;;9.19;100.00;100074.97;5002830;28;45452;-83
2023/04/13 05:32:49;;;;;;;;;5.67;3.33;;;;;9.21;100.00;100039.19;4987996;28;45421;-81
2023/04/13 05:35:15;;;;;;;;;5.67;2.00;;;;;9.76;100.00;100066.03;5009761;28;47079;-82
2023/04/13 05:37:40;;;;;;;;;6.00;2.00;;;;;10.12;100.00;100080.97;5009599;28;47551;-80
2023/04/13 05:40:12;;;;;;;;;6.67;3.33;;;;;10.44;100.00;100078.22;4998466;28;46518;-80
2023/04/13 05:42:39;;;;;;;;;4.00;3.00;;;;;10.74;100.00;100067.38;5013820;28;45735;-79
2023/04/13 05:45:08;;;;;;;;;3.67;3.67;;;;;11.20;100.00;100090.72;5011200;28;45500;-81
2023/04/13 05:47:34;;;;;;;;;4.33;3.67;;;;;11.50;100.00;100054.25;5011802;28;45645;-81
2023/04/13 05:50:02;;;;;;;;;6.00;2.67;;;;;11.78;100.00;100070.13;5012660;28;45817;-81
2023/04/13 05:52:28;;;;;;;;;7.33;4.67;;;;;12.14;100.00;100072.97;5004657;28;45529;-80
2023/04/13 05:54:53;;;;;;;;;3.67;2.00;;;;;12.52;100.00;100080.78;5005562;28;45522;-79
2023/04/13 05:57:20;;;;;;;;;4.67;3.00;;;;;12.80;100.00;100071.00;5014423;28;46620;-80
2023/04/13 05:59:46;;;;;;;;;4.00;2.67;;;;;13.19;100.00;100087.81;5013213;28;45970;-81
2023/04/13 06:02:11;;;;;;;;;5.00;2.67;;;;;13.62;100.00;100084.84;5006032;28;45704;-79
2023/04/13 06:04:36;;;;;;;;;3.67;2.67;;;;;13.81;100.00;100091.84;5007426;28;46203;-79
2023/04/13 06:07:02;;;;;;;;;5.00;1.67;;;;;13.92;100.00;100084.59;5011246;28;46356;-81
2023/04/13 06:09:28;;;;;;;;;7.00;2.00;;;;;14.35;100.00;100090.59;5000353;28;45509;-80
2023/04/13 06:11:54;;;;;;;;;5.33;3.00;;;;;14.72;100.00;100090.94;5012651;28;45494;-79
2023/04/13 06:14:20;;;;;;;;;5.33;4.00;;;;;14.88;100.00;100072.69;5011730;28;45796;-81
2023/04/13 06:16:46;;;;;;;;;3.00;2.00;;;;;15.35;100.00;100088.78;5019928;28;45824;-82
2023/04/13 06:19:13;;;;;;;;;3.33;1.67;;;;;15.58;100.00;100103.41;5014540;28;45950;-81
2023/04/13 06:21:38;;;;;;;;;1.00;1.00;;;;;15.76;100.00;100074.59;5012247;28;45447;-80
2023/04/13 06:24:04;;;;;;;;;5.00;3.00;;;;;16.01;100.00;100079.59;5014198;28;45754;-81
2023/04/13 06:26:29;;;;;;;;;9.33;3.00;;;;;16.31;100.00;100100.34;5012172;28;47539;-81
2023/04/13 06:28:55;;;;;;;;;3.33;1.00;;;;;16.32;100.00;100099.25;5012681;28;45554;-80
2023/04/13 06:31:22;;;;;;;;;1.00;1.00;;;;;16.52;100.00;100092.22;4978386;28;45506;-81
2023/04/13 06:33:48;;;;;;;;;2.67;2.00;;;;;16.94;100.00;100108.88;4998230;28;45595;-81
2023/04/13 06:36:13;;;;;;;;;7.33;2.00;;;;;17.40;100.00;100101.94;5009492;28;47469;-82
2023/04/13 06:38:39;;;;;;;;;6.33;3.67;;;;;17.87;100.00;100100.16;5011277;28;45862;-82
2023/04/13 06:41:04;;;;;;;;;27.67;12.00;;;;;18.42;98.44;100104.13;5011556;28;45901;-82
2023/04/13 06:43:30;;;;;;;;;4.00;1.33;;;;;18.81;94.92;100106.34;5004577;28;46054;-81
2023/04/13 06:45:58;;;;;;;;;13.33;6.33;;;;;19.17;93.27;100108.25;4998122;28;48194;-80
2023/04/13 06:48:29;;;;;;;;;17.33;12.67;;;;;19.64;91.36;100117.25;5011786;28;45654;-82
2023/04/13 06:50:58;;;;;;;;;4.33;3.00;;;;;20.18;87.02;100115.59;5000580;28;45856;-80
2023/04/13 06:53:24;;;;;;;;;2.33;2.00;;;;;20.62;85.10;100109.97;4991914;28;46465;-81
2023/04/13 06:55:49;;;;;;;;;1.00;1.00;;;;;20.82;80.75;100097.00;5010097;28;45881;-79
2023/04/13 06:58:15;;;;;;;;;3.67;2.00;;;;;21.19;79.78;100100.25;5012067;28;45783;-82
2023/04/13 07:00:41;;;;;;;;;8.75;5.25;;;;;21.43;77.87;100100.25;4993619;28;45501;-79
2023/04/13 07:03:06;;;;;;;;;12.67;8.00;;;;;21.88;75.19;100109.19;5011398;28;45926;-80
2023/04/13 07:05:31;;;;;;;;;13.33;7.67;;;;;21.97;72.84;100068.28;5010075;28;46132;-81
2023/04/13 07:07:57;;;;;;;;;5.33;2.33;;;;;22.41;70.94;100096.13;5008053;28;45470;-82
2023/04/13 07:10:23;;;;;;;;;2.75;1.25;;;;;22.64;69.97;100111.94;5013295;28;45669;-82
2023/04/13 07:12:48;;;;;;;;;5.25;2.00;;;;;22.84;67.82;100115.53;5006075;28;45530;-81
2023/04/13 07:15:14;;;;;;;;;4.00;2.25;;;;;23.04;67.13;100095.59;4993356;28;48095;-82
2023/04/13 07:17:40;;;;;;;;;5.25;3.25;;;;;23.59;65.11;100116.34;5009256;28;45990;-81
2023/04/13 07:20:06;;;;;;;;;5.75;3.00;;;;;23.87;62.46;100099.56;5009667;28;45307;-80
2023/04/13 07:22:34;;;;;;;;;2.25;1.00;;;;;23.62;62.51;100124.13;5010429;28;45805;-80
2023/04/13 07:25:00;;;;;;;;;3.50;2.00;;;;;23.81;61.59;100121.19;5009017;28;45641;-82
2023/04/13 07:27:26;;;;;;;;;3.00;2.00;;;;;23.85;60.19;100115.78;5009773;28;45743;-80
2023/04/13 07:29:52;;;;;;;;;5.00;3.00;;;;;23.91;60.05;100092.19;5010749;28;45581;-82
2023/04/13 07:32:18;;;;;;;;;1.25;1.00;;;;;24.17;58.74;100122.41;5011483;28;45478;-82
2023/04/13 07:34:44;;;;;;;;;1.75;1.00;;;;;24.25;58.08;100116.88;4991370;28;46941;-80
2023/04/13 07:37:10;;;;;;;;;4.25;3.50;;;;;24.56;56.08;100132.94;5012992;28;45596;-82
2023/04/13 07:39:35;;;;;;;;;4.00;2.75;;;;;24.44;55.36;100121.47;5011294;28;45874;-80
2023/04/13 07:42:01;;;;;;;;;5.50;2.00;;;;;24.42;55.40;100106.97;5009797;28;45480;-80
2023/04/13 07:44:26;;;;;;;;;4.00;2.75;;;;;24.62;54.35;100117.66;5011209;28;46657;-80
2023/04/13 07:46:54;;;;;;;;;3.00;2.00;;;;;24.73;54.37;100109.84;5011026;28;45442;-80
2023/04/13 07:49:21;;;;;;;;;4.25;1.00;;;;;24.64;53.50;100108.94;5009245;28;46328;-80
2023/04/13 07:51:47;;;;;;;;;1.75;1.25;;;;;23.80;54.39;100139.97;4989642;28;48141;-80
2023/04/13 07:54:12;;;;;;;;;4.75;2.25;;;;;22.63;56.13;100126.22;5010648;28;45855;-81
2023/04/13 07:56:38;;;;;;;;;2.50;2.00;;;;;22.23;57.33;100146.13;5011788;28;45847;-81
2023/04/13 07:59:03;;;;;;;;;4.75;3.00;;;;;21.40;58.12;100139.91;5011038;28;45470;-82
2023/04/13 08:01:29;;;;;;;;;4.25;1.75;;;;;20.45;59.04;100148.56;5012257;28;45819;-83
2023/04/13 08:03:55;;;;;;;;;8.00;1.75;;;;;19.88;60.82;100150.84;5013095;28;45759;-82
2023/04/13 08:06:22;;;;;;;;;2.25;0.75;;;;;19.19;62.65;100156.91;4996109;28;45919;-82
2023/04/13 08:08:47;;;;;;;;;4.75;3.00;;;;;18.41;64.08;100146.06;4998154;28;45464;-80
2023/04/13 08:11:13;;;;;;;;;2.00;2.00;;;;;18.06;66.58;100170.69;5013970;28;47095;-82
2023/04/13 08:13:39;;;;;;;;;5.33;2.00;;;;;17.64;66.82;100155.00;5013271;28;45359;-81
2023/04/13 08:16:05;;;;;;;;;2.67;1.67;;;;;17.42;68.84;100188.41;5015012;28;45740;-81
2023/04/13 08:18:31;;;;;;;;;3.00;3.00;;;;;17.21;68.82;100176.38;5015209;28;46620;-81
2023/04/13 08:20:59;;;;;;;;;1.67;1.33;;;;;16.99;69.37;100169.03;5017916;28;45464;-82
2023/04/13 08:23:26;;;;;;;;;3.67;2.67;;;;;16.98;70.51;100172.91;5017210;28;46989;-80
2023/04/13 08:25:51;;;;;;;;;2.00;1.00;;;;;17.07;70.80;100187.91;5016954;28;45411;-81
2023/04/13 08:28:17;;;;;;;;;1.00;1.00;;;;;17.06;71.68;100172.38;5010827;28;45529;-80
2023/04/13 08:30:43;;;;;;;;;6.67;3.00;;;;;17.20;72.65;100194.09;4996981;28;45611;-80
2023/04/13 08:33:09;;;;;;;;;3.67;2.00;;;;;16.99;71.50;100169.03;5007114;28;47550;-80
2023/04/13 08:35:37;;;;;;;;;2.33;1.33;;;;;16.96;72.58;100179.78;5013990;28;45778;-80
2023/04/13 08:38:03;;;;;;;;;3.00;2.00;;;;;17.23;72.29;100188.00;4996645;28;45836;-79
2023/04/13 08:40:30;;;;;;;;;5.67;2.33;;;;;17.13;72.05;100187.97;5013793;28;45712;-80
2023/04/13 08:42:59;;;;;;;;;4.67;2.33;;;;;17.18;72.08;100163.06;5012681;28;45548;-82
2023/04/13 08:45:25;;;;;;;;;1.00;1.00;;;;;18.47;70.33;100187.47;5013458;28;44809;-83
2023/04/13 08:47:51;;;;;;;;;4.00;3.00;;;;;19.83;68.62;100181.47;5013554;28;45460;-83
2023/04/13 08:50:17;;;;;;;;;5.00;1.00;;;;;21.00;64.69;100179.06;4996187;28;46066;-81
2023/04/13 08:52:42;;;;;;;;;4.00;1.00;;;;;22.36;63.03;100178.06;4998102;28;46905;-81
2023/04/13 08:55:09;;;;;;;;;3.00;3.00;;;;;23.82;59.25;100178.03;5014874;28;45612;-81
2023/04/13 08:57:36;;;;;;;;;2.50;2.50;;;;;24.50;56.30;100179.06;5013493;28;45352;-80
2023/04/13 09:00:10;;;;;;;;;4.00;1.00;;;;;25.32;53.99;100170.59;5011475;28;45604;-80
2023/04/13 09:02:38;;;;;;;;;2.50;2.00;;;;;26.31;51.04;100175.06;5015464;28;45846;-81
2023/04/13 09:05:14;;;;;;;;;2.50;1.00;;;;;27.31;48.95;100173.16;5009835;28;45525;-83
2023/04/13 09:07:41;;;;;;;;;1.00;1.00;;;;;27.85;45.48;100144.44;5004285;28;45974;-81
2023/04/13 09:10:08;;;;;;;;;3.25;1.25;;;;;28.50;42.80;100163.91;5017330;28;45423;-81
2023/04/13 09:12:34;;;;;;;;;4.75;1.00;;;;;29.05;41.68;100176.03;5016310;28;45482;-80
2023/04/13 09:15:02;;;;;;;;;1.75;1.75;;;;;29.79;40.10;100169.69;5002636;28;45455;-83
2023/04/13 09:17:31;;;;;;;;;2.00;2.00;;;;;30.66;39.43;100173.22;5016812;28;45431;-80
2023/04/13 09:20:09;;;;;;;;;4.75;0.75;;;;;31.46;36.76;100169.38;5014367;28;46991;-80
2023/04/13 09:22:35;;;;;;;;;3.75;1.00;;;;;32.14;35.22;100161.78;5016402;28;46388;-80
2023/04/13 09:25:01;;;;;;;;;1.75;0.00;;;;;32.49;33.65;100149.56;5020627;28;45412;-82
2023/04/13 09:27:26;;;;;;;;;3.25;1.50;;;;;33.18;32.21;100165.97;5016471;28;45565;-82
2023/04/13 09:29:53;;;;;;;;;2.00;1.00;;;;;33.50;31.75;100167.78;5016240;28;45623;-83
2023/04/13 09:32:24;;;;;;;;;1.00;1.00;;;;;33.77;30.63;100154.44;5015242;28;45783;-83
2023/04/13 09:35:03;;;;;;;;;2.00;2.00;;;;;33.89;28.57;100120.06;4999286;28;45757;-83
2023/04/13 09:37:33;;;;;;;;;1.25;1.25;;;;;33.83;29.00;100143.56;5018861;28;45272;-81
2023/04/13 09:40:13;;;;;;;;;2.00;1.00;;;;;34.10;28.22;100170.81;5017171;28;45722;-82
2023/04/13 09:42:40;;;;;;;;;1.25;1.00;;;;;34.45;27.47;100160.34;5019260;28;45509;-82
2023/04/13 09:45:07;;;;;;;;;1.00;1.00;;;;;34.93;26.64;100163.38;5020714;28;45456;-82
2023/04/13 09:47:39;;;;;;;;;1.50;1.25;;;;;35.19;26.64;100167.31;5020838;28;45582;-82
2023/04/13 09:50:27;;;;;;;;;2.00;2.00;;;;;35.23;26.14;100159.63;5005631;28;45535;-82
2023/04/13 09:53:03;;;;;;;;;2.00;1.50;;;;;35.11;25.68;100162.78;5017777;28;46296;-83
2023/04/13 09:55:31;;;;;;;;;2.25;1.50;;;;;35.18;24.51;100162.81;4996719;28;45494;-83
2023/04/13 09:58:07;;;;;;;;;1.25;1.25;;;;;35.19;24.52;100147.38;5011475;28;45572;-83
2023/04/13 10:00:33;;;;;;;;;0.00;0.00;;;;;35.35;23.67;100147.97;5014796;28;46005;-82
2023/04/13 10:03:00;;;;;;;;;4.25;3.00;;;;;35.34;24.60;100143.47;4998782;28;46168;-82
2023/04/13 10:05:26;;;;;;;;;2.00;2.00;;;;;33.28;23.50;100144.69;5010791;28;45011;-82
2023/04/13 10:07:53;;;;;;;;;3.25;1.00;;;;;32.07;24.85;100155.06;5004843;28;45778;-82
2023/04/13 10:10:21;;;;;;;;;2.75;1.00;;;;;30.96;26.49;100148.22;5001544;28;46679;-82
2023/04/13 10:12:52;;;;;;;;;5.00;1.75;;;;;31.14;26.50;100140.22;5022105;28;46237;-82
2023/04/13 10:15:26;;;;;;;;;1.60;0.00;;;;;31.68;25.95;100167.16;5019133;28;45671;-83
2023/04/13 10:18:02;;;;;;;;;2.50;1.00;;;;;31.84;25.99;100162.28;5002768;28;45859;-83
2023/04/13 10:20:29;;;;;;;;;0.75;0.00;;;;;31.73;25.14;100132.03;5014397;28;45825;-77
2023/04/13 10:22:55;;;;;;;;;0.00;0.00;;;;;31.47;26.17;100162.53;5011188;28;46489;-77
2023/04/13 10:25:21;;;;;;;;;1.00;1.00;;;;;31.49;26.14;100162.19;5016609;28;46874;-76
2023/04/13 10:27:56;;;;;;;;;0.75;0.75;;;;;31.71;26.36;100128.72;5009846;28;45544;-78
2023/04/13 10:30:22;;;;;;;;;1.00;1.00;;;;;30.89;26.08;100143.16;5010671;28;45736;-83
2023/04/13 10:32:47;;;;;;;;;1.50;1.50;;;;;29.41;27.12;100149.06;5009074;28;46649;-77
2023/04/13 10:35:14;;;;;;;;;0.00;0.00;;;;;28.81;26.98;100166.28;5015002;28;45725;-78
2023/04/13 10:37:42;;;;;;;;;2.25;2.25;;;;;28.70;27.86;100148.16;5022500;28;45542;-81
2023/04/13 10:40:13;;;;;;;;;3.00;1.00;;;;;29.01;27.69;100152.47;5011718;28;45951;-78
2023/04/13 10:42:41;;;;;;;;;0.50;0.50;;;;;29.38;26.66;100150.59;5009457;28;47055;-78
2023/04/13 10:45:16;;;;;;;;;3.75;2.00;;;;;29.47;26.61;100150.47;5008149;28;45824;-80
2023/04/13 10:47:42;;;;;;;;;2.00;2.00;;;;;29.18;25.98;100143.81;4982740;28;45589;-79
2023/04/13 10:50:15;;;;;;;;;2.50;2.00;;;;;29.01;25.80;100121.44;5014664;28;45572;-80
2023/04/13 10:52:41;;;;;;;;;4.75;1.00;;;;;28.29;26.19;100158.25;5012467;28;45914;-80
2023/04/13 10:55:09;;;;;;;;;2.50;1.25;;;;;27.25;26.32;100147.16;5002187;28;45857;-79
2023/04/13 10:57:35;;;;;;;;;1.00;1.00;;;;;26.11;27.81;100149.25;4988157;28;45969;-80
2023/04/13 11:00:02;;;;;;;;;1.50;1.00;;;;;24.90;28.65;100147.56;5011284;28;46039;-78
2023/04/13 11:02:31;;;;;;;;;1.50;1.50;;;;;24.11;30.79;100170.13;4996455;28;47198;-77
2023/04/13 11:04:58;;;;;;;;;3.75;2.00;;;;;23.27;31.63;100171.28;5009460;28;45793;-77
2023/04/13 11:07:27;;;;;;;;;1.00;1.00;;;;;22.29;33.99;100167.25;5021631;28;46008;-78
2023/04/13 11:09:59;;;;;;;;;1.00;1.00;;;;;21.28;34.84;100180.19;5008572;28;46071;-80
2023/04/13 11:12:25;;;;;;;;;1.00;1.00;;;;;20.30;34.61;100163.44;5004372;28;46031;-80
2023/04/13 11:14:51;;;;;;;;;4.33;2.00;;;;;19.84;33.19;100189.53;5013137;28;45707;-85
2023/04/13 11:17:18;;;;;;;;;1.50;1.00;;;;;19.34;35.83;100189.41;5011807;28;45564;-81
2023/04/13 11:19:53;;;;;;;;;1.67;1.67;;;;;19.29;36.93;100181.06;5015458;28;45663;-80
2023/04/13 11:22:26;;;;;;;;;3.00;1.67;;;;;19.55;38.04;100181.84;5010277;28;45893;-79
2023/04/13 11:24:52;;;;;;;;;1.00;1.00;;;;;19.75;38.50;100192.06;5009335;28;45573;-80
2023/04/13 11:27:22;;;;;;;;;0.67;0.67;;;;;19.89;39.33;100170.03;5012091;28;46523;-81